Hemavan Airport


Codes: ESUT/HMV
Name: Hemavan Airport
City:
Country: Sweden
Elevation: 1503 ft.
Wikipedia:

Photos at Hemavan Airport


   Photos courtesy of SpottingLog. You can add your own sightings and photos by signing up for a free trial today.



No photos found.

Weather at Hemavan Airport


Time (UTC)DescriptionTempratureWindCloud coverageVisibilityPressureHumidity
19-Apr-2024 03:00Overcast Clouds-6°C2 mph, E99%2124m1011hPa63%
19-Apr-2024 06:00Overcast Clouds-6°C4 mph, SE99%5592m1013hPa73%
19-Apr-2024 09:00Overcast Clouds-4°C7 mph, E100%10000m1014hPa74%
19-Apr-2024 12:00Overcast Clouds-4°C4 mph, E92%10000m1016hPa71%
19-Apr-2024 15:00Overcast Clouds-3°C4 mph, E98%10000m1016hPa71%
19-Apr-2024 18:00Overcast Clouds-8°C4 mph, E91%10000m1017hPa87%
19-Apr-2024 21:00Few Clouds-13°C2 mph, NE23%10000m1020hPa95%
20-Apr-2024 00:00Scattered Clouds-12°C2 mph, NE41%1189m1020hPa100%
20-Apr-2024 03:00Overcast Clouds-14°C2 mph, N97%4562m1021hPa99%
20-Apr-2024 06:00Overcast Clouds-9°C2 mph, N99%9584m1021hPa96%
20-Apr-2024 09:00Broken Clouds-4°C4 mph, NW61%10000m1021hPa81%
20-Apr-2024 12:00Scattered Clouds-2°C7 mph, NW44%10000m1021hPa75%
20-Apr-2024 15:00Scattered Clouds-2°C4 mph, NW32%10000m1023hPa77%
20-Apr-2024 18:00Scattered Clouds-7°C7 mph, NW27%10000m1027hPa92%
20-Apr-2024 21:00Few Clouds-11°C7 mph, NW16%10000m1030hPa96%
21-Apr-2024 00:00Scattered Clouds-13°C4 mph, N28%9444m1033hPa99%
21-Apr-2024 03:00Broken Clouds-13°C4 mph, N66%2180m1035hPa100%
21-Apr-2024 06:00Broken Clouds-7°C2 mph, E75%47m1035hPa100%
21-Apr-2024 09:00Overcast Clouds-4°C4 mph, SE85%10000m1035hPa89%
21-Apr-2024 12:00Broken Clouds-2°C4 mph, SE81%10000m1035hPa85%
21-Apr-2024 15:00Overcast Clouds-1°C4 mph, SE86%10000m1035hPa80%
21-Apr-2024 18:00Broken Clouds-5°C4 mph, SE71%10000m1036hPa91%
21-Apr-2024 21:00Scattered Clouds-9°C4 mph, SE33%10000m1037hPa97%
22-Apr-2024 00:00Scattered Clouds-10°C4 mph, SE48%2987m1037hPa100%
22-Apr-2024 03:00Overcast Clouds-10°C4 mph, SE100%784m1035hPa100%
22-Apr-2024 06:00Overcast Clouds-6°C7 mph, SE100%1211m1032hPa96%
22-Apr-2024 09:00Overcast Clouds-4°C7 mph, SE100%10000m1030hPa85%
22-Apr-2024 12:00Overcast Clouds-2°C9 mph, SE100%10000m1027hPa77%
22-Apr-2024 15:00Overcast Clouds-1°C9 mph, SE100%10000m1025hPa75%
22-Apr-2024 18:00Overcast Clouds-2°C7 mph, SE100%10000m1024hPa86%
22-Apr-2024 21:00Light Snow-3°C7 mph, SE100%138m1023hPa97%
23-Apr-2024 00:00Light Snow-4°C4 mph, SE100%165m1021hPa97%
23-Apr-2024 03:00Light Snow-4°C4 mph, E100%159m1020hPa96%
23-Apr-2024 06:00Light Snow-4°C7 mph, E100%1038m1020hPa91%
23-Apr-2024 09:00Overcast Clouds-4°C4 mph, E100%10000m1019hPa84%
23-Apr-2024 12:00Overcast Clouds-2°C7 mph, E100%10000m1018hPa82%
23-Apr-2024 15:00Overcast Clouds-2°C4 mph, E100%10000m1017hPa77%
23-Apr-2024 18:00Overcast Clouds-4°C4 mph, E100%10000m1017hPa82%
23-Apr-2024 21:00Scattered Clouds-11°C4 mph, NE38%10000m1019hPa94%
24-Apr-2024 00:00Broken Clouds-7°C2 mph, NE67%10000m1018hPa91%